Time;durP1;ratioP1;P1;durP2;ratioP2;P2;SDS_P1;SDS_P2;PMS_P1;PMS_P2;Temp;Humidity;BMP_temperature;BMP_pressure;BME280_temperature;BME280_humidity;BME280_pressure;Samples;Min_cycle;Max_cycle;Signal;HPM_P1;HPM_P2
2022/11/22 00:00:24;;;;;;;;;;;;;;;;;;10455192;28;20073;-63
2022/11/22 00:05:26;;;;;;;;;;;;;;;;;;10454614;28;20384;-63
2022/11/22 00:10:28;;;;;;;;;;;;;;;;;;10456426;28;19932;-63
2022/11/22 00:15:30;;;;;;;;;;;;;;;;;;10456164;28;19990;-63
2022/11/22 00:20:32;;;;;;;;;;;;;;;;;;10455551;28;20372;-63
2022/11/22 00:25:34;;;;;;;;;;;;;;;;;;10454068;28;20397;-63
2022/11/22 00:30:36;;;;;;;;;;;;;;;;;;10463469;28;19978;-63
2022/11/22 00:35:38;;;;;;;;;;;;;;;;;;10462456;28;19925;-63
2022/11/22 00:40:40;;;;;;;;;;;;;;;;;;10463605;28;19929;-63
2022/11/22 00:45:42;;;;;;;;;;;;;;;;;;10463155;28;19978;-63
2022/11/22 00:50:44;;;;;;;;;;;;;;;;;;10461946;28;19929;-63
2022/11/22 00:55:46;;;;;;;;;;;;;;;;;;10461995;28;20334;-63
2022/11/22 01:00:48;;;;;;;;;;;;;;;;;;10461822;28;19925;-63
2022/11/22 01:05:55;;;;;;;;;;;;;;;;;;10460862;28;20272;-63
2022/11/22 01:10:57;;;;;;;;;;;;;;;;;;10462185;28;19925;-63
2022/11/22 01:16:00;;;;;;;;;;;;;;;;;;10466079;28;19925;-63
2022/11/22 01:21:02;;;;;;;;;;;;;;;;;;10460008;28;19982;-63
2022/11/22 01:26:04;;;;;;;;;;;;;;;;;;10460978;28;19925;-63
2022/11/22 01:31:06;;;;;;;;;;;;;;;;;;10461349;28;19991;-63
2022/11/22 01:36:08;;;;;;;;;;;;;;;;;;10461691;28;19929;-63
2022/11/22 01:41:10;;;;;;;;;;;;;;;;;;10459958;28;19925;-63
2022/11/22 01:46:12;;;;;;;;;;;;;;;;;;10461056;28;19928;-63
2022/11/22 01:51:14;;;;;;;;;;;;;;;;;;10461826;28;19929;-63
2022/11/22 01:56:16;;;;;;;;;;;;;;;;;;10460463;28;19924;-63
2022/11/22 02:01:18;;;;;;;;;;;;;;;;;;10459510;28;19948;-63
2022/11/22 02:06:20;;;;;;;;;;;;;;;;;;10459150;28;19925;-63
2022/11/22 02:11:23;;;;;;;;;;;;;;;;;;10459771;28;19951;-63
2022/11/22 02:16:25;;;;;;;;;;;;;;;;;;10459318;28;19935;-63
2022/11/22 02:21:27;;;;;;;;;;;;;;;;;;10458373;28;19978;-63
2022/11/22 02:26:29;;;;;;;;;;;;;;;;;;10457709;28;19925;-63
2022/11/22 02:31:31;;;;;;;;;;;;;;;;;;10458715;28;20368;-63
2022/11/22 02:36:33;;;;;;;;;;;;;;;;;;10457840;28;19932;-63
2022/11/22 02:41:35;;;;;;;;;;;;;;;;;;10457481;28;19955;-63
2022/11/22 02:46:37;;;;;;;;;;;;;;;;;;10459276;28;19924;-63
2022/11/22 02:51:39;;;;;;;;;;;;;;;;;;10457163;28;19974;-63
2022/11/22 02:56:41;;;;;;;;;;;;;;;;;;10457991;28;19924;-63
2022/11/22 03:01:43;;;;;;;;;;;;;;;;;;10457301;28;19931;-63
2022/11/22 03:06:45;;;;;;;;;;;;;;;;;;10457748;28;19936;-63
2022/11/22 03:11:47;;;;;;;;;;;;;;;;;;10457067;28;19971;-63
2022/11/22 03:16:49;;;;;;;;;;;;;;;;;;10457528;28;19932;-64
2022/11/22 03:21:51;;;;;;;;;;;;;;;;;;10457137;28;19924;-63
2022/11/22 03:26:53;;;;;;;;;;;;;;;;;;10456962;28;19932;-63
2022/11/22 03:31:55;;;;;;;;;;;;;;;;;;10455782;28;19936;-63
2022/11/22 03:36:57;;;;;;;;;;;;;;;;;;10454541;28;19928;-63
2022/11/22 03:42:00;;;;;;;;;;;;;;;;;;10456228;28;19932;-63
2022/11/22 03:47:02;;;;;;;;;;;;;;;;;;10456346;28;19929;-63
2022/11/22 03:52:04;;;;;;;;;;;;;;;;;;10456185;28;19924;-63
2022/11/22 03:57:06;;;;;;;;;;;;;;;;;;10456689;28;19929;-63
2022/11/22 04:02:08;;;;;;;;;;;;;;;;;;10453912;28;20368;-63
2022/11/22 04:07:10;;;;;;;;;;;;;;;;;;10456018;28;19924;-63
2022/11/22 04:12:12;;;;;;;;;;;;;;;;;;10455267;28;20323;-63
2022/11/22 04:17:39;;;;;;;;;;;;;;;;;;10455017;28;19978;-63
2022/11/22 04:22:36;;;;;;;;;;;;;;;;;;10454878;28;19925;-63
2022/11/22 04:27:38;;;;;;;;;;;;;;;;;;10454886;28;20379;-63
2022/11/22 04:32:46;;;;;;;;;;;;;;;;;;10478932;22;19924;-64
2022/11/22 04:37:48;;;;;;;;;;;;;;;;;;10539956;28;19924;-64
2022/11/22 04:48:11;;;;;;;;;;;;;;;;;;10529505;28;19924;-64
2022/11/22 04:53:13;;;;;;;;;;;;;;;;;;10537666;28;20324;-64
2022/11/22 04:58:16;;;;;;;;;;;;;;;;;;10538251;28;19924;-65
2022/11/22 05:03:18;;;;;;;;;;;;;;;;;;10537133;28;19977;-64
2022/11/22 05:08:20;;;;;;;;;;;;;;;;;;10537092;28;19977;-64
2022/11/22 05:13:22;;;;;;;;;;;;;;;;;;10539110;28;20325;-64
2022/11/22 05:18:24;;;;;;;;;;;;;;;;;;10545391;28;20375;-64
2022/11/22 05:28:47;;;;;;;;;;;;;;;;;;10543636;28;20378;-64
2022/11/22 05:33:49;;;;;;;;;;;;;;;;;;10542671;28;19924;-64
2022/11/22 05:38:51;;;;;;;;;;;;;;;;;;10543349;28;19931;-64
2022/11/22 05:43:54;;;;;;;;;;;;;;;;;;10540942;28;19924;-64
2022/11/22 05:48:56;;;;;;;;;;;;;;;;;;10545426;28;19924;-65
2022/11/22 05:53:58;;;;;;;;;;;;;;;;;;10545000;28;19928;-65
2022/11/22 05:59:00;;;;;;;;;;;;;;;;;;10542785;28;19985;-65
2022/11/22 06:04:03;;;;;;;;;;;;;;;;;;10542538;28;19924;-65
2022/11/22 06:09:05;;;;;;;;;;;;;;;;;;10543246;28;19931;-65
2022/11/22 06:14:07;;;;;;;;;;;;;;;;;;10541626;28;19935;-65
2022/11/22 06:19:09;;;;;;;;;;;;;;;;;;10542806;28;19931;-65
2022/11/22 06:24:11;;;;;;;;;;;;;;;;;;10542386;28;20378;-65
2022/11/22 06:29:13;;;;;;;;;;;;;;;;;;10542043;28;19931;-64
2022/11/22 06:34:15;;;;;;;;;;;;;;;;;;10525227;28;19924;-65
2022/11/22 06:39:17;;;;;;;;;;;;;;;;;;10542856;28;20424;-65
2022/11/22 06:44:19;;;;;;;;;;;;;;;;;;10543267;28;19924;-65
2022/11/22 06:49:22;;;;;;;;;;;;;;;;;;10543033;28;19924;-65
2022/11/22 06:54:24;;;;;;;;;;;;;;;;;;10542265;28;20436;-64
2022/11/22 06:59:26;;;;;;;;;;;;;;;;;;10542736;28;19925;-65
2022/11/22 07:04:28;;;;;;;;;;;;;;;;;;10540922;28;19928;-64
2022/11/22 07:09:30;;;;;;;;;;;;;;;;;;10541930;28;19924;-64
2022/11/22 07:14:33;;;;;;;;;;;;;;;;;;10538509;28;19931;-64
2022/11/22 07:19:35;;;;;;;;;;;;;;;;;;10540822;28;20317;-67
2022/11/22 07:24:37;;;;;;;;;;;;;;;;;;10539776;28;19924;-67
2022/11/22 07:29:39;;;;;;;;;;;;;;;;;;10537784;28;19970;-67
2022/11/22 07:34:41;;;;;;;;;;;;;;;;;;10538182;28;19985;-67
2022/11/22 07:39:43;;;;;;;;;;;;;;;;;;10539596;28;19928;-65
2022/11/22 07:44:45;;;;;;;;;;;;;;;;;;10538508;28;19924;-65
2022/11/22 07:49:47;;;;;;;;;;;;;;;;;;10538664;28;19931;-64
2022/11/22 07:54:49;;;;;;;;;;;;;;;;;;10539012;28;19924;-64
2022/11/22 07:59:51;;;;;;;;;;;;;;;;;;10540344;28;20440;-64
2022/11/22 08:04:53;;;;;;;;;;;;;;;;;;10498916;28;19928;-64
2022/11/22 08:09:56;;;;;;;;;;;;;;;;;;10536210;28;19977;-65
2022/11/22 08:14:58;;;;;;;;;;;;;;;;;;10537730;28;19932;-64
2022/11/22 08:20:00;;;;;;;;;;;;;;;;;;10537455;28;19924;-64
2022/11/22 08:25:02;;;;;;;;;;;;;;;;;;10539754;28;20322;-65
2022/11/22 08:30:04;;;;;;;;;;;;;;;;;;10539312;28;19924;-65
2022/11/22 08:35:06;;;;;;;;;;;;;;;;;;10537469;28;20329;-65
2022/11/22 08:40:08;;;;;;;;;;;;;;;;;;10536693;28;20014;-65
2022/11/22 08:45:10;;;;;;;;;;;;;;;;;;10538207;28;20283;-65
2022/11/22 08:50:12;;;;;;;;;;;;;;;;;;10542741;28;19924;-65
2022/11/22 08:55:14;;;;;;;;;;;;;;;;;;10547622;28;19928;-65
2022/11/22 09:00:16;;;;;;;;;;;;;;;;;;10547534;28;19932;-65
2022/11/22 09:05:19;;;;;;;;;;;;;;;;;;10547326;28;19928;-65
2022/11/22 09:10:21;;;;;;;;;;;;;;;;;;10547146;28;19924;-65
2022/11/22 09:15:23;;;;;;;;;;;;;;;;;;10546905;28;19975;-65
2022/11/22 09:20:25;;;;;;;;;;;;;;;;;;10546758;28;19924;-65
2022/11/22 09:25:27;;;;;;;;;;;;;;;;;;10546524;28;19950;-65
2022/11/22 09:30:29;;;;;;;;;;;;;;;;;;10545705;28;20329;-65
2022/11/22 09:35:31;;;;;;;;;;;;;;;;;;10545215;28;20386;-65
2022/11/22 09:40:33;;;;;;;;;;;;;;;;;;10545907;28;19978;-65
2022/11/22 09:45:35;;;;;;;;;;;;;;;;;;10545754;28;19927;-65
2022/11/22 09:50:37;;;;;;;;;;;;;;;;;;10545492;28;19924;-65
2022/11/22 09:55:39;;;;;;;;;;;;;;;;;;10527355;28;19932;-65
2022/11/22 10:00:42;;;;;;;;;;;;;;;;;;10544001;28;20367;-66
2022/11/22 10:05:49;;;;;;;;;;;;;;;;;;10544935;28;19931;-65
2022/11/22 10:10:51;;;;;;;;;;;;;;;;;;10544065;28;20427;-65
2022/11/22 10:15:53;;;;;;;;;;;;;;;;;;10544519;28;19931;-65
2022/11/22 10:20:55;;;;;;;;;;;;;;;;;;10543848;28;19924;-65
2022/11/22 10:25:57;;;;;;;;;;;;;;;;;;10544123;28;19974;-65
2022/11/22 10:30:59;;;;;;;;;;;;;;;;;;10543943;28;19935;-65
2022/11/22 10:36:02;;;;;;;;;;;;;;;;;;10542815;28;19948;-65
2022/11/22 10:41:04;;;;;;;;;;;;;;;;;;10543530;28;19975;-65
2022/11/22 10:46:06;;;;;;;;;;;;;;;;;;10542656;28;19924;-65
2022/11/22 10:51:08;;;;;;;;;;;;;;;;;;10543050;28;19970;-65
2022/11/22 10:56:10;;;;;;;;;;;;;;;;;;10542825;28;19932;-65
2022/11/22 11:01:12;;;;;;;;;;;;;;;;;;10542108;28;19993;-65
2022/11/22 11:06:14;;;;;;;;;;;;;;;;;;10541892;28;20367;-65
2022/11/22 11:11:27;;;;;;;;;;;;;;;;;;10524568;28;19925;-65
2022/11/22 11:16:29;;;;;;;;;;;;;;;;;;10541412;28;20272;-65
2022/11/22 11:21:31;;;;;;;;;;;;;;;;;;10541944;28;19977;-65
2022/11/22 11:26:33;;;;;;;;;;;;;;;;;;10541738;28;19924;-65
2022/11/22 11:31:35;;;;;;;;;;;;;;;;;;10539182;28;19924;-65
2022/11/22 11:36:37;;;;;;;;;;;;;;;;;;10522807;28;19946;-66
2022/11/22 11:41:39;;;;;;;;;;;;;;;;;;10540688;28;19935;-66
2022/11/22 11:46:44;;;;;;;;;;;;;;;;;;10540504;28;20014;-65
2022/11/22 11:51:47;;;;;;;;;;;;;;;;;;10540329;28;19924;-65
2022/11/22 11:56:49;;;;;;;;;;;;;;;;;;10540217;28;20260;-65
2022/11/22 12:01:51;;;;;;;;;;;;;;;;;;10540838;28;19924;-65
2022/11/22 12:06:53;;;;;;;;;;;;;;;;;;10540106;28;19967;-65
2022/11/22 12:11:59;;;;;;;;;;;;;;;;;;10540642;28;19936;-65
2022/11/22 12:17:01;;;;;;;;;;;;;;;;;;10540498;28;19931;-65
2022/11/22 12:22:03;;;;;;;;;;;;;;;;;;10540468;28;20375;-66
2022/11/22 12:27:05;;;;;;;;;;;;;;;;;;10548265;28;20350;-66
2022/11/22 12:32:07;;;;;;;;;;;;;;;;;;10529915;28;20333;-66
2022/11/22 12:37:09;;;;;;;;;;;;;;;;;;10530489;28;19958;-66
2022/11/22 12:42:11;;;;;;;;;;;;;;;;;;10548190;28;19924;-66
2022/11/22 12:47:14;;;;;;;;;;;;;;;;;;10548112;28;19928;-65
2022/11/22 12:52:16;;;;;;;;;;;;;;;;;;10529303;28;19950;-65
2022/11/22 12:57:19;;;;;;;;;;;;;;;;;;10547036;28;19931;-65
2022/11/22 13:02:21;;;;;;;;;;;;;;;;;;10547351;28;19931;-65
2022/11/22 13:07:23;;;;;;;;;;;;;;;;;;10546626;28;19974;-66
2022/11/22 13:12:25;;;;;;;;;;;;;;;;;;10547099;28;19924;-66
2022/11/22 13:17:27;;;;;;;;;;;;;;;;;;10546338;28;19924;-66
2022/11/22 13:22:31;;;;;;;;;;;;;;;;;;10546074;28;20349;-66
2022/11/22 13:27:33;;;;;;;;;;;;;;;;;;10546528;28;19970;-66
2022/11/22 13:32:35;;;;;;;;;;;;;;;;;;10546024;28;19977;-65
2022/11/22 13:37:37;;;;;;;;;;;;;;;;;;10544522;28;19924;-66
2022/11/22 13:42:40;;;;;;;;;;;;;;;;;;10545920;28;19928;-66
2022/11/22 13:47:42;;;;;;;;;;;;;;;;;;10545080;28;19924;-64
2022/11/22 13:52:44;;;;;;;;;;;;;;;;;;10545576;28;19969;-65
2022/11/22 13:57:46;;;;;;;;;;;;;;;;;;10545271;28;19931;-65
2022/11/22 14:02:48;;;;;;;;;;;;;;;;;;10545176;28;19924;-64
2022/11/22 14:07:50;;;;;;;;;;;;;;;;;;10544342;28;20267;-64
2022/11/22 14:12:52;;;;;;;;;;;;;;;;;;10544694;28;19924;-64
2022/11/22 14:17:54;;;;;;;;;;;;;;;;;;10543819;28;19969;-64
2022/11/22 14:22:56;;;;;;;;;;;;;;;;;;10543688;28;19973;-64
2022/11/22 14:27:58;;;;;;;;;;;;;;;;;;10543490;28;19973;-65
2022/11/22 14:33:01;;;;;;;;;;;;;;;;;;10543294;28;20340;-65
2022/11/22 14:38:04;;;;;;;;;;;;;;;;;;10542981;28;20427;-64
2022/11/22 14:43:06;;;;;;;;;;;;;;;;;;10543515;28;19924;-64
2022/11/22 14:48:08;;;;;;;;;;;;;;;;;;10543275;28;19928;-65
2022/11/22 14:53:10;;;;;;;;;;;;;;;;;;10524700;28;20379;-64
2022/11/22 14:58:12;;;;;;;;;;;;;;;;;;10524908;28;19969;-65
2022/11/22 15:03:14;;;;;;;;;;;;;;;;;;10542688;28;19924;-65
2022/11/22 15:08:16;;;;;;;;;;;;;;;;;;10542499;28;19931;-65
2022/11/22 15:13:38;;;;;;;;;;;;;;;;;;10541553;28;19924;-64
2022/11/22 15:18:40;;;;;;;;;;;;;;;;;;10542197;28;19935;-64
2022/11/22 15:24:02;;;;;;;;;;;;;;;;;;10540401;28;20014;-64
2022/11/22 15:29:24;;;;;;;;;;;;;;;;;;10539005;28;20016;-64
2022/11/22 15:34:49;;;;;;;;;;;;;;;;;;10539011;28;20286;-65
2022/11/22 15:40:11;;;;;;;;;;;;;;;;;;10540763;28;19924;-64
2022/11/22 15:45:33;;;;;;;;;;;;;;;;;;10538712;28;19950;-64
2022/11/22 15:50:55;;;;;;;;;;;;;;;;;;10536335;28;19986;-65
2022/11/22 15:56:17;;;;;;;;;;;;;;;;;;10540204;28;20408;-64
2022/11/22 16:01:39;;;;;;;;;;;;;;;;;;10540389;28;20346;-64
2022/11/22 16:06:41;;;;;;;;;;;;;;;;;;10539189;28;19977;-64
2022/11/22 16:11:43;;;;;;;;;;;;;;;;;;10539650;28;19924;-64
2022/11/22 16:16:45;;;;;;;;;;;;;;;;;;10540496;28;19924;-64
2022/11/22 16:21:48;;;;;;;;;;;;;;;;;;10539856;28;20294;-64
2022/11/22 16:26:50;;;;;;;;;;;;;;;;;;10539395;28;19985;-64
2022/11/22 16:31:52;;;;;;;;;;;;;;;;;;10539840;28;19924;-64
2022/11/22 16:36:54;;;;;;;;;;;;;;;;;;10536568;28;19928;-64
2022/11/22 16:41:56;;;;;;;;;;;;;;;;;;10539466;28;19924;-64
2022/11/22 16:46:59;;;;;;;;;;;;;;;;;;10552331;22;19928;-64
2022/11/22 16:52:01;;;;;;;;;;;;;;;;;;10538824;28;19924;-64
2022/11/22 16:57:03;;;;;;;;;;;;;;;;;;10539140;28;20271;-64
2022/11/22 17:02:06;;;;;;;;;;;;;;;;;;10538754;28;19970;-64
2022/11/22 17:07:08;;;;;;;;;;;;;;;;;;10521725;28;19938;-64
2022/11/22 17:12:10;;;;;;;;;;;;;;;;;;10544130;28;20400;-64
2022/11/22 17:17:12;;;;;;;;;;;;;;;;;;10545947;28;19924;-64
2022/11/22 17:22:15;;;;;;;;;;;;;;;;;;10543026;28;19932;-64
2022/11/22 17:27:17;;;;;;;;;;;;;;;;;;10546464;28;19924;-64
2022/11/22 17:32:19;;;;;;;;;;;;;;;;;;10545656;28;20282;-64
2022/11/22 17:37:21;;;;;;;;;;;;;;;;;;10528093;28;19974;-64
2022/11/22 17:42:23;;;;;;;;;;;;;;;;;;10544520;28;20363;-64
2022/11/22 17:47:26;;;;;;;;;;;;;;;;;;10544688;28;19969;-64
2022/11/22 17:52:28;;;;;;;;;;;;;;;;;;10544024;28;20332;-64
2022/11/22 17:57:30;;;;;;;;;;;;;;;;;;10545332;28;19977;-64
2022/11/22 18:02:32;;;;;;;;;;;;;;;;;;10544363;28;19924;-64
2022/11/22 18:07:34;;;;;;;;;;;;;;;;;;10544203;28;19930;-64
2022/11/22 18:12:36;;;;;;;;;;;;;;;;;;10543218;28;19931;-64
2022/11/22 18:17:43;;;;;;;;;;;;;;;;;;10544598;28;19950;-64
2022/11/22 18:22:45;;;;;;;;;;;;;;;;;;10543468;28;20444;-64
2022/11/22 18:27:47;;;;;;;;;;;;;;;;;;10516409;28;19928;-64
2022/11/22 18:32:49;;;;;;;;;;;;;;;;;;10501487;28;19924;-64
2022/11/22 18:37:51;;;;;;;;;;;;;;;;;;10532649;28;19924;-64
2022/11/22 18:42:53;;;;;;;;;;;;;;;;;;10543016;28;19925;-64
2022/11/22 18:47:56;;;;;;;;;;;;;;;;;;10540873;28;19924;-64
2022/11/22 18:52:58;;;;;;;;;;;;;;;;;;10542462;28;20410;-64
2022/11/22 18:58:00;;;;;;;;;;;;;;;;;;10542916;28;19924;-64
2022/11/22 19:03:02;;;;;;;;;;;;;;;;;;10540777;28;19924;-64
2022/11/22 19:08:07;;;;;;;;;;;;;;;;;;10540844;28;19924;-64
2022/11/22 19:13:09;;;;;;;;;;;;;;;;;;10542421;28;19970;-64
2022/11/22 19:18:12;;;;;;;;;;;;;;;;;;10537801;28;19924;-64
2022/11/22 19:23:14;;;;;;;;;;;;;;;;;;10538153;28;20299;-64
2022/11/22 19:28:16;;;;;;;;;;;;;;;;;;10539587;28;19985;-64
2022/11/22 19:33:18;;;;;;;;;;;;;;;;;;10537114;28;19932;-64
2022/11/22 19:38:20;;;;;;;;;;;;;;;;;;10541357;28;19925;-64
2022/11/22 19:43:22;;;;;;;;;;;;;;;;;;10540036;28;19954;-64
2022/11/22 19:48:24;;;;;;;;;;;;;;;;;;10539819;28;19973;-64
2022/11/22 19:53:28;;;;;;;;;;;;;;;;;;10538995;28;21420;-64
2022/11/22 19:58:30;;;;;;;;;;;;;;;;;;10539611;28;19924;-64
2022/11/22 20:03:32;;;;;;;;;;;;;;;;;;10540237;28;20428;-64
2022/11/22 20:08:35;;;;;;;;;;;;;;;;;;10538355;28;19928;-64
2022/11/22 20:13:37;;;;;;;;;;;;;;;;;;10537296;28;20302;-64
2022/11/22 20:18:39;;;;;;;;;;;;;;;;;;10540474;28;19931;-64
2022/11/22 20:23:41;;;;;;;;;;;;;;;;;;10539125;28;20341;-64
2022/11/22 20:28:43;;;;;;;;;;;;;;;;;;10540326;28;19928;-64
2022/11/22 20:33:45;;;;;;;;;;;;;;;;;;10539294;28;19924;-64
2022/11/22 20:38:47;;;;;;;;;;;;;;;;;;10539543;28;20431;-64
2022/11/22 20:43:49;;;;;;;;;;;;;;;;;;10541695;28;19924;-64
2022/11/22 20:48:52;;;;;;;;;;;;;;;;;;10546083;28;20329;-64
2022/11/22 20:53:54;;;;;;;;;;;;;;;;;;10488268;28;19931;-64
2022/11/22 20:58:56;;;;;;;;;;;;;;;;;;10531552;28;20374;-64
2022/11/22 21:03:58;;;;;;;;;;;;;;;;;;10547634;28;19928;-64
2022/11/22 21:09:00;;;;;;;;;;;;;;;;;;10544492;28;19928;-64
2022/11/22 21:14:02;;;;;;;;;;;;;;;;;;10547183;28;19924;-64
2022/11/22 21:19:04;;;;;;;;;;;;;;;;;;10545262;28;19924;-64
2022/11/22 21:24:06;;;;;;;;;;;;;;;;;;10546079;28;19924;-64
2022/11/22 21:29:13;;;;;;;;;;;;;;;;;;10545617;28;19928;-64
2022/11/22 21:34:17;;;;;;;;;;;;;;;;;;10546368;28;19924;-64
2022/11/22 21:39:19;;;;;;;;;;;;;;;;;;10544113;28;19924;-64
2022/11/22 21:44:21;;;;;;;;;;;;;;;;;;10545897;28;19931;-64
2022/11/22 21:49:24;;;;;;;;;;;;;;;;;;10544292;28;19953;-64
2022/11/22 21:54:26;;;;;;;;;;;;;;;;;;10544664;28;20044;-64
2022/11/22 21:59:28;;;;;;;;;;;;;;;;;;10544326;28;19928;-64
2022/11/22 22:04:30;;;;;;;;;;;;;;;;;;10544548;28;19970;-64
2022/11/22 22:09:32;;;;;;;;;;;;;;;;;;10544884;28;19978;-64
2022/11/22 22:14:34;;;;;;;;;;;;;;;;;;10543102;28;20430;-64
2022/11/22 22:19:38;;;;;;;;;;;;;;;;;;10543856;28;20367;-64
2022/11/22 22:24:41;;;;;;;;;;;;;;;;;;10544304;28;19924;-64
2022/11/22 22:29:43;;;;;;;;;;;;;;;;;;10543276;28;19931;-64
2022/11/22 22:34:45;;;;;;;;;;;;;;;;;;10542488;28;19924;-64
2022/11/22 22:39:47;;;;;;;;;;;;;;;;;;10543677;28;19978;-64
2022/11/22 22:44:52;;;;;;;;;;;;;;;;;;10542593;28;19924;-64
2022/11/22 22:49:54;;;;;;;;;;;;;;;;;;10542835;28;19925;-64
2022/11/22 22:54:56;;;;;;;;;;;;;;;;;;10541484;28;19947;-64
2022/11/22 22:59:58;;;;;;;;;;;;;;;;;;10542847;28;19928;-64
2022/11/22 23:05:00;;;;;;;;;;;;;;;;;;10542115;28;19928;-64
2022/11/22 23:10:02;;;;;;;;;;;;;;;;;;10540633;28;19977;-64
2022/11/22 23:15:04;;;;;;;;;;;;;;;;;;10540877;28;19977;-64
2022/11/22 23:20:07;;;;;;;;;;;;;;;;;;10541498;28;20321;-64
2022/11/22 23:25:09;;;;;;;;;;;;;;;;;;10541352;28;19932;-64
2022/11/22 23:30:11;;;;;;;;;;;;;;;;;;10540870;28;19924;-64
2022/11/22 23:35:13;;;;;;;;;;;;;;;;;;10541646;28;19924;-64
2022/11/22 23:40:15;;;;;;;;;;;;;;;;;;10540670;28;19924;-64
2022/11/22 23:45:17;;;;;;;;;;;;;;;;;;10540734;28;20366;-64
2022/11/22 23:50:19;;;;;;;;;;;;;;;;;;10539711;28;19982;-64
2022/11/22 23:55:21;;;;;;;;;;;;;;;;;;10540407;28;20325;-64
